Time;durP1;ratioP1;P1;durP2;ratioP2;P2;SDS_P1;SDS_P2;PMS_P1;PMS_P2;Temp;Humidity;BMP_temperature;BMP_pressure;BME280_temperature;BME280_humidity;BME280_pressure;Samples;Min_cycle;Max_cycle;Signal;HPM_P1;HPM_P2
2023/08/24 00:01:12;;;;;;;3.78;2.50;;;22.10;59.40;;;;;;5044223;28;20033;-63
2023/08/24 00:03:39;;;;;;;4.38;2.70;;;22.10;59.50;;;;;;5042998;28;20118;-64
2023/08/24 00:06:04;;;;;;;5.38;2.55;;;22.10;59.50;;;;;;5046694;28;20123;-64
2023/08/24 00:08:30;;;;;;;4.68;2.67;;;22.10;60.20;;;;;;5052145;28;20439;-64
2023/08/24 00:10:56;;;;;;;2.95;2.50;;;22.00;59.60;;;;;;5050488;28;20055;-62
2023/08/24 00:13:21;;;;;;;4.05;2.78;;;22.00;59.70;;;;;;5043281;28;20056;-63
2023/08/24 00:15:47;;;;;;;7.63;2.83;;;22.00;59.80;;;;;;5041093;28;20040;-62
2023/08/24 00:18:13;;;;;;;7.25;2.60;;;22.00;60.00;;;;;;5045860;28;20432;-63
2023/08/24 00:20:38;;;;;;;4.32;2.75;;;22.00;60.00;;;;;;5048379;28;20028;-63
2023/08/24 00:23:04;;;;;;;4.97;2.70;;;22.00;60.10;;;;;;5047267;28;20025;-62
2023/08/24 00:25:30;;;;;;;4.70;2.60;;;21.90;60.20;;;;;;5049582;28;20029;-63
2023/08/24 00:27:56;;;;;;;4.10;2.80;;;21.90;60.40;;;;;;5045464;28;20207;-62
2023/08/24 00:30:23;;;;;;;8.68;2.90;;;21.90;60.60;;;;;;5048981;28;20024;-62
2023/08/24 00:32:48;;;;;;;5.75;3.03;;;21.90;60.70;;;;;;5039671;28;20119;-63
2023/08/24 00:35:14;;;;;;;3.80;2.72;;;21.90;60.70;;;;;;5045522;28;20116;-61
2023/08/24 00:37:40;;;;;;;4.38;2.85;;;21.90;60.80;;;;;;5042985;28;20030;-63
2023/08/24 00:40:09;;;;;;;6.43;3.15;;;21.90;61.00;;;;;;5045229;28;20033;-63
2023/08/24 00:42:42;;;;;;;4.60;3.20;;;21.80;61.10;;;;;;5045952;28;20361;-64
2023/08/24 00:45:09;;;;;;;5.75;3.55;;;21.80;61.50;;;;;;5045301;28;20052;-63
2023/08/24 00:47:36;;;;;;;4.57;3.08;;;21.80;61.30;;;;;;5051414;28;20527;-63
2023/08/24 00:50:03;;;;;;;7.53;3.58;;;21.80;61.30;;;;;;5044037;28;20379;-63
2023/08/24 00:52:31;;;;;;;4.53;3.15;;;21.80;61.40;;;;;;5048340;28;20040;-62
2023/08/24 00:55:01;;;;;;;7.25;3.13;;;21.80;61.70;;;;;;5052580;28;20051;-62
2023/08/24 00:57:28;;;;;;;5.43;3.45;;;21.80;61.60;;;;;;5046576;28;20121;-63
2023/08/24 00:59:56;;;;;;;7.00;3.17;;;21.70;61.60;;;;;;5050028;28;20023;-63
2023/08/24 01:02:21;;;;;;;4.38;2.80;;;21.70;61.70;;;;;;5046331;28;20036;-62
2023/08/24 01:04:47;;;;;;;3.92;2.80;;;21.70;61.80;;;;;;5047896;28;20025;-62
2023/08/24 01:07:15;;;;;;;8.30;2.90;;;21.70;61.90;;;;;;5048244;28;20032;-62
2023/08/24 01:09:42;;;;;;;5.72;2.92;;;21.60;61.70;;;;;;5040394;28;20042;-63
2023/08/24 01:12:13;;;;;;;4.82;2.90;;;21.60;61.60;;;;;;5046081;28;20022;-63
2023/08/24 01:14:50;;;;;;;6.25;3.45;;;21.60;61.90;;;;;;5050552;28;20503;-63
2023/08/24 01:17:22;;;;;;;7.00;3.00;;;21.60;62.50;;;;;;5047495;28;20372;-63
2023/08/24 01:19:48;;;;;;;4.30;2.65;;;21.60;62.00;;;;;;5045110;28;20372;-62
2023/08/24 01:22:34;;;;;;;3.85;2.85;;;21.60;61.90;;;;;;5047153;28;20188;-63
2023/08/24 01:25:12;;;;;;;8.55;2.83;;;21.60;61.80;;;;;;5045424;28;20389;-63
2023/08/24 01:27:39;;;;;;;4.82;3.08;;;21.50;62.10;;;;;;5044731;28;20025;-62
2023/08/24 01:30:06;;;;;;;6.45;3.13;;;21.50;61.80;;;;;;5053748;28;20112;-64
2023/08/24 01:32:32;;;;;;;5.88;2.90;;;21.50;62.00;;;;;;5045532;28;20032;-62
2023/08/24 01:34:59;;;;;;;5.90;2.95;;;21.50;61.90;;;;;;5044910;28;20037;-62
2023/08/24 01:37:26;;;;;;;8.05;3.13;;;21.50;61.80;;;;;;5046134;28;20407;-64
2023/08/24 01:39:58;;;;;;;4.65;2.80;;;21.50;61.80;;;;;;5044833;28;20036;-63
2023/08/24 01:42:29;;;;;;;3.72;2.58;;;21.50;61.90;;;;;;5042659;28;20090;-63
2023/08/24 01:44:58;;;;;;;3.30;2.75;;;21.40;62.70;;;;;;5044629;28;20025;-63
2023/08/24 01:47:25;;;;;;;7.82;3.20;;;21.40;62.10;;;;;;5044138;28;20032;-63
2023/08/24 01:49:52;;;;;;;7.13;2.95;;;21.40;62.10;;;;;;5040400;28;20021;-63
2023/08/24 01:52:18;;;;;;;8.13;2.90;;;21.40;62.10;;;;;;5045561;28;20048;-64
2023/08/24 01:54:44;;;;;;;4.78;2.47;;;21.40;62.10;;;;;;5050209;28;20119;-63
2023/08/24 01:57:10;;;;;;;9.80;3.00;;;21.40;62.10;;;;;;5048073;28;20029;-64
2023/08/24 01:59:36;;;;;;;5.18;2.75;;;21.30;62.20;;;;;;5044725;28;20111;-63
2023/08/24 02:02:02;;;;;;;6.45;2.72;;;21.40;62.20;;;;;;5043522;28;20661;-63
2023/08/24 02:04:28;;;;;;;5.75;2.75;;;21.40;62.10;;;;;;5045787;28;20024;-64
2023/08/24 02:06:53;;;;;;;5.15;2.72;;;21.30;62.10;;;;;;5044228;28;20388;-63
2023/08/24 02:09:19;;;;;;;4.25;2.78;;;21.30;62.00;;;;;;5043654;28;20494;-63
2023/08/24 02:11:45;;;;;;;6.90;3.78;;;21.30;62.10;;;;;;5045027;28;20029;-64
2023/08/24 02:14:10;;;;;;;5.00;3.00;;;21.30;62.30;;;;;;5049948;28;20044;-63
2023/08/24 02:16:36;;;;;;;5.97;2.72;;;21.20;62.30;;;;;;5043202;28;20033;-64
2023/08/24 02:19:02;;;;;;;5.05;2.70;;;21.20;62.30;;;;;;5043807;28;20029;-63
2023/08/24 02:21:27;;;;;;;7.78;2.97;;;21.20;62.50;;;;;;5048966;28;20021;-63
2023/08/24 02:23:53;;;;;;;7.97;2.97;;;21.20;62.50;;;;;;5046335;28;20087;-64
2023/08/24 02:26:20;;;;;;;5.10;2.85;;;21.20;62.50;;;;;;5042184;28;20074;-62
2023/08/24 02:28:46;;;;;;;5.38;2.78;;;21.20;62.50;;;;;;5043205;28;20025;-63
2023/08/24 02:31:11;;;;;;;11.10;2.67;;;21.20;62.50;;;;;;5041839;28;20032;-63
2023/08/24 02:33:37;;;;;;;3.72;2.80;;;21.10;62.60;;;;;;5049355;28;20033;-62
2023/08/24 02:36:03;;;;;;;4.35;3.08;;;21.10;62.60;;;;;;5047437;28;20427;-63
2023/08/24 02:38:28;;;;;;;7.57;3.50;;;21.10;62.70;;;;;;5045052;28;20070;-63
2023/08/24 02:41:02;;;;;;;5.25;2.97;;;21.10;62.70;;;;;;5045521;28;20032;-62
2023/08/24 02:43:28;;;;;;;5.82;2.63;;;21.10;63.10;;;;;;5040614;28;20068;-62
2023/08/24 02:45:53;;;;;;;13.07;3.15;;;21.10;62.70;;;;;;5042426;28;20695;-62
2023/08/24 02:48:19;;;;;;;6.13;2.90;;;21.10;62.70;;;;;;5044599;28;20025;-63
2023/08/24 02:50:48;;;;;;;6.15;2.92;;;21.00;62.70;;;;;;5046425;28;20084;-63
2023/08/24 02:53:13;;;;;;;4.57;2.78;;;21.00;62.90;;;;;;5043409;28;20529;-64
2023/08/24 02:55:39;;;;;;;6.38;2.60;;;21.00;62.80;;;;;;5046616;28;20044;-63
2023/08/24 02:58:05;;;;;;;5.47;2.70;;;21.00;62.90;;;;;;5043170;28;20139;-63
2023/08/24 03:00:30;;;;;;;4.22;2.78;;;21.00;62.90;;;;;;5042022;28;20484;-62
2023/08/24 03:02:56;;;;;;;6.13;3.22;;;21.00;63.00;;;;;;5041701;28;20132;-64
2023/08/24 03:05:22;;;;;;;3.63;2.97;;;20.90;63.00;;;;;;5037080;28;20058;-63
2023/08/24 03:07:47;;;;;;;5.32;3.13;;;20.90;63.00;;;;;;5046033;28;20044;-63
2023/08/24 03:10:13;;;;;;;5.90;2.83;;;20.90;63.20;;;;;;5046314;28;20041;-64
2023/08/24 03:12:39;;;;;;;5.32;2.63;;;20.90;63.20;;;;;;5044676;28;20041;-62
2023/08/24 03:15:05;;;;;;;3.88;2.72;;;20.90;63.20;;;;;;5043073;28;20522;-63
2023/08/24 03:17:31;;;;;;;4.90;2.97;;;20.80;63.20;;;;;;5042722;28;20124;-63
2023/08/24 03:19:58;;;;;;;3.30;2.67;;;20.80;63.30;;;;;;5045635;28;20048;-62
2023/08/24 03:22:23;;;;;;;7.30;2.80;;;20.80;63.30;;;;;;5046805;28;20024;-62
2023/08/24 03:24:49;;;;;;;8.50;3.30;;;20.80;63.40;;;;;;5046442;28;20363;-62
2023/08/24 03:27:18;;;;;;;6.18;2.80;;;20.80;63.50;;;;;;5015788;28;20379;-63
2023/08/24 03:29:43;;;;;;;5.22;3.15;;;20.80;63.80;;;;;;5044407;28;20033;-62
2023/08/24 03:32:09;;;;;;;4.97;2.75;;;20.80;63.70;;;;;;5040466;28;20029;-64
2023/08/24 03:34:34;;;;;;;6.05;2.85;;;20.70;63.70;;;;;;5045494;28;20044;-63
2023/08/24 03:37:00;;;;;;;3.88;2.90;;;20.70;63.80;;;;;;5042297;28;20021;-62
2023/08/24 03:39:26;;;;;;;7.35;2.97;;;20.70;63.80;;;;;;5042926;28;20033;-64
2023/08/24 03:41:51;;;;;;;6.95;2.88;;;20.70;63.80;;;;;;5045940;28;20017;-62
2023/08/24 03:44:17;;;;;;;5.20;2.83;;;20.70;63.90;;;;;;5046149;28;20021;-63
2023/08/24 03:46:43;;;;;;;3.63;2.58;;;20.70;64.00;;;;;;5042367;28;20029;-63
2023/08/24 03:49:08;;;;;;;7.28;2.90;;;20.70;64.00;;;;;;5042497;28;20032;-62
2023/08/24 03:51:34;;;;;;;4.85;2.92;;;20.70;64.10;;;;;;5046304;28;20025;-64
2023/08/24 03:54:00;;;;;;;4.30;2.63;;;20.60;64.10;;;;;;5047540;28;20040;-63
2023/08/24 03:56:25;;;;;;;4.57;2.95;;;20.60;64.10;;;;;;5046061;28;20025;-62
2023/08/24 03:58:51;;;;;;;6.80;3.28;;;20.70;64.20;;;;;;5046423;28;20430;-63
2023/08/24 04:01:17;;;;;;;6.75;3.15;;;20.60;64.10;;;;;;5048929;28;20035;-63
2023/08/24 04:03:43;;;;;;;6.28;3.30;;;20.60;64.20;;;;;;5046330;28;20040;-62
2023/08/24 04:06:08;;;;;;;6.82;2.85;;;20.60;64.10;;;;;;5042602;28;20155;-63
2023/08/24 04:08:34;;;;;;;5.00;2.83;;;20.60;64.10;;;;;;5044538;28;20025;-63
2023/08/24 04:11:00;;;;;;;4.60;3.10;;;20.60;64.20;;;;;;5044350;28;20029;-63
2023/08/24 04:13:26;;;;;;;6.18;2.90;;;20.60;65.10;;;;;;5043491;28;20028;-62
2023/08/24 04:15:51;;;;;;;5.78;3.20;;;20.60;64.50;;;;;;5045367;28;20041;-63
2023/08/24 04:18:17;;;;;;;4.63;2.85;;;20.50;64.50;;;;;;5047054;28;20487;-62
2023/08/24 04:20:42;;;;;;;5.82;3.10;;;20.50;64.50;;;;;;5044778;28;20029;-63
2023/08/24 04:23:10;;;;;;;5.18;3.38;;;20.50;64.60;;;;;;5047838;28;20028;-63
2023/08/24 04:25:39;;;;;;;7.25;3.05;;;20.50;64.80;;;;;;5041776;28;20025;-63
2023/08/24 04:28:06;;;;;;;4.45;2.92;;;20.50;64.90;;;;;;5041917;28;20021;-63
2023/08/24 04:30:32;;;;;;;4.65;3.20;;;20.50;64.70;;;;;;5043614;28;20120;-62
2023/08/24 04:32:59;;;;;;;3.20;2.80;;;20.50;64.80;;;;;;5040096;28;20036;-63
2023/08/24 04:35:25;;;;;;;7.50;3.53;;;20.50;64.90;;;;;;5048079;28;20590;-63
2023/08/24 04:37:51;;;;;;;8.00;3.10;;;20.50;65.70;;;;;;5040405;28;20110;-63
2023/08/24 04:40:17;;;;;;;4.75;3.50;;;20.50;65.00;;;;;;5045706;28;20044;-62
2023/08/24 04:42:42;;;;;;;5.47;3.30;;;20.50;65.00;;;;;;5048422;28;20083;-62
2023/08/24 04:45:09;;;;;;;4.25;2.92;;;20.50;65.00;;;;;;5049083;28;20013;-62
2023/08/24 04:47:35;;;;;;;6.60;2.90;;;20.50;65.00;;;;;;5049337;28;20033;-62
2023/08/24 04:50:00;;;;;;;6.13;3.17;;;20.50;65.00;;;;;;5048065;28;20055;-63
2023/08/24 04:52:26;;;;;;;6.95;3.35;;;20.50;65.10;;;;;;5048455;28;20056;-61
2023/08/24 04:54:52;;;;;;;4.32;2.90;;;20.50;65.10;;;;;;5048873;28;20036;-64
2023/08/24 04:57:18;;;;;;;4.70;2.97;;;20.50;65.10;;;;;;5051525;28;20052;-62
2023/08/24 04:59:44;;;;;;;3.78;2.95;;;20.50;65.20;;;;;;5041186;28;20111;-62
2023/08/24 05:02:09;;;;;;;5.03;2.85;;;20.50;65.20;;;;;;5052046;28;20120;-62
2023/08/24 05:04:35;;;;;;;6.45;3.22;;;20.50;65.20;;;;;;5053075;28;20035;-61
2023/08/24 05:07:01;;;;;;;4.15;2.75;;;20.50;65.30;;;;;;5047636;28;20036;-62
2023/08/24 05:09:26;;;;;;;4.90;2.67;;;20.60;65.30;;;;;;5048868;28;20048;-63
2023/08/24 05:11:52;;;;;;;6.85;2.72;;;20.60;65.30;;;;;;5047596;28;20028;-63
2023/08/24 05:14:18;;;;;;;8.18;3.05;;;20.70;65.40;;;;;;5049216;28;20033;-62
2023/08/24 05:16:43;;;;;;;6.30;3.53;;;20.70;65.50;;;;;;5052938;28;20464;-63
2023/08/24 05:19:09;;;;;;;6.10;2.88;;;20.80;65.60;;;;;;5048992;28;20029;-62
2023/08/24 05:21:35;;;;;;;9.38;3.00;;;20.80;65.60;;;;;;5047281;28;20079;-63
2023/08/24 05:24:00;;;;;;;7.32;2.90;;;20.90;65.50;;;;;;5050631;28;20662;-62
2023/08/24 05:26:26;;;;;;;5.22;3.10;;;21.00;65.50;;;;;;5047971;28;20035;-62
2023/08/24 05:28:53;;;;;;;13.20;3.10;;;21.00;65.30;;;;;;4959082;28;20021;-63
2023/08/24 05:31:18;;;;;;;7.80;3.20;;;21.10;65.40;;;;;;5051296;28;20027;-63
2023/08/24 05:33:44;;;;;;;8.73;3.17;;;21.20;65.30;;;;;;5038914;28;20484;-63
2023/08/24 05:36:10;;;;;;;7.93;2.83;;;21.20;65.00;;;;;;5044371;28;20033;-64
2023/08/24 05:38:35;;;;;;;4.50;3.10;;;21.30;65.00;;;;;;5047327;28;20025;-62
2023/08/24 05:41:01;;;;;;;8.20;4.20;;;21.40;65.10;;;;;;5051383;28;20024;-63
2023/08/24 05:43:27;;;;;;;4.55;3.20;;;21.40;65.10;;;;;;5050392;28;20021;-63
2023/08/24 05:45:52;;;;;;;7.50;3.45;;;21.50;65.00;;;;;;5051507;28;20025;-62
2023/08/24 05:48:18;;;;;;;6.47;3.47;;;21.50;65.00;;;;;;5054977;28;20706;-62
2023/08/24 05:50:45;;;;;;;8.27;3.40;;;21.60;64.90;;;;;;5052703;28;20479;-63
2023/08/24 05:53:11;;;;;;;13.55;3.15;;;21.70;64.90;;;;;;5059745;28;20165;-63
2023/08/24 05:55:36;;;;;;;9.55;3.03;;;21.80;65.00;;;;;;5047599;28;20033;-62
2023/08/24 05:58:03;;;;;;;10.18;3.28;;;21.80;65.00;;;;;;5048001;28;20021;-62
2023/08/24 06:00:29;;;;;;;11.07;3.13;;;21.90;64.90;;;;;;5048955;28;20017;-61
2023/08/24 06:02:55;;;;;;;8.90;3.38;;;21.90;64.60;;;;;;5049472;28;20040;-62
2023/08/24 06:05:20;;;;;;;6.82;3.03;;;22.00;64.50;;;;;;5037521;28;20028;-63
2023/08/24 06:07:46;;;;;;;9.00;3.05;;;22.10;64.40;;;;;;5048103;28;20040;-62
2023/08/24 06:10:12;;;;;;;12.98;3.40;;;22.20;65.10;;;;;;5046562;28;20086;-63
2023/08/24 06:12:38;;;;;;;10.73;3.42;;;22.20;64.30;;;;;;5044432;28;20025;-63
2023/08/24 06:15:05;;;;;;;7.38;3.13;;;22.30;64.20;;;;;;5048249;28;20479;-63
2023/08/24 06:17:30;;;;;;;11.43;3.25;;;22.30;64.00;;;;;;5045800;28;20031;-64
2023/08/24 06:19:56;;;;;;;5.68;3.20;;;22.40;63.80;;;;;;5047751;28;20052;-63
2023/08/24 06:22:22;;;;;;;6.65;3.20;;;22.40;63.70;;;;;;5042294;28;20028;-63
2023/08/24 06:24:47;;;;;;;7.32;3.20;;;22.50;63.60;;;;;;5047920;28;20086;-63
2023/08/24 06:27:24;;;;;;;7.25;2.97;;;22.50;63.60;;;;;;5034002;28;20029;-64
2023/08/24 06:29:49;;;;;;;8.20;3.20;;;22.50;63.70;;;;;;5043402;28;20025;-63
2023/08/24 06:32:15;;;;;;;7.72;3.30;;;22.50;63.30;;;;;;5045990;28;20102;-62
2023/08/24 06:34:40;;;;;;;7.20;2.90;;;22.60;63.40;;;;;;5049311;28;20040;-62
2023/08/24 06:37:06;;;;;;;6.57;2.60;;;22.60;63.40;;;;;;5044795;28;20021;-62
2023/08/24 06:39:32;;;;;;;7.45;3.20;;;22.70;63.60;;;;;;5040776;28;20447;-62
2023/08/24 06:41:58;;;;;;;9.55;3.45;;;22.70;63.50;;;;;;5045422;28;20127;-63
2023/08/24 06:44:23;;;;;;;12.32;3.50;;;22.80;63.60;;;;;;5043961;28;20482;-62
2023/08/24 06:46:49;;;;;;;7.60;3.55;;;23.00;63.60;;;;;;5045377;28;20058;-64
2023/08/24 06:49:14;;;;;;;10.68;3.40;;;23.10;63.70;;;;;;5039738;28;20053;-63
2023/08/24 06:51:41;;;;;;;7.65;2.85;;;23.30;63.50;;;;;;5045179;28;20021;-62
2023/08/24 06:54:07;;;;;;;8.50;3.00;;;23.50;63.50;;;;;;5045966;28;20025;-63
2023/08/24 06:56:32;;;;;;;10.13;3.03;;;23.70;63.30;;;;;;5046448;28;20017;-63
2023/08/24 06:58:58;;;;;;;9.93;3.42;;;23.80;62.70;;;;;;5042893;28;20028;-63
2023/08/24 07:01:25;;;;;;;6.88;3.50;;;24.00;62.20;;;;;;5040920;28;20017;-63
2023/08/24 07:03:51;;;;;;;12.25;3.10;;;24.20;61.60;;;;;;5043340;28;20111;-63
2023/08/24 07:06:16;;;;;;;8.35;3.60;;;24.30;60.90;;;;;;5041978;28;20117;-62
2023/08/24 07:08:42;;;;;;;6.63;3.05;;;24.50;60.60;;;;;;5041289;28;20045;-62
2023/08/24 07:11:08;;;;;;;6.60;3.33;;;24.70;60.10;;;;;;5041154;28;20091;-62
2023/08/24 07:13:34;;;;;;;10.27;3.60;;;24.80;59.60;;;;;;5044606;28;20017;-62
2023/08/24 07:16:00;;;;;;;11.02;3.33;;;25.00;59.10;;;;;;5040474;28;20602;-61
2023/08/24 07:18:26;;;;;;;7.88;3.42;;;25.10;59.40;;;;;;5039979;28;20580;-61
2023/08/24 07:20:51;;;;;;;6.13;3.50;;;25.30;58.90;;;;;;5043689;28;20075;-63
2023/08/24 07:23:17;;;;;;;7.05;3.50;;;25.50;58.60;;;;;;5046821;28;20065;-62
2023/08/24 07:25:43;;;;;;;8.07;3.40;;;25.70;58.10;;;;;;5042275;28;20473;-63
2023/08/24 07:28:09;;;;;;;4.82;2.97;;;25.90;57.60;;;;;;5047591;28;20028;-63
2023/08/24 07:30:35;;;;;;;6.57;2.95;;;26.00;57.40;;;;;;5042256;28;20104;-62
2023/08/24 07:33:05;;;;;;;7.95;3.10;;;26.10;57.10;;;;;;5045264;28;20511;-61
2023/08/24 07:35:32;;;;;;;6.38;3.38;;;26.30;57.00;;;;;;5036800;28;20064;-63
2023/08/24 07:37:58;;;;;;;7.93;3.22;;;26.40;56.40;;;;;;5045011;28;20098;-63
2023/08/24 07:40:24;;;;;;;11.40;2.70;;;26.60;55.90;;;;;;5046889;28;20037;-61
2023/08/24 07:42:53;;;;;;;10.85;3.35;;;26.70;55.90;;;;;;5043076;28;20029;-61
2023/08/24 07:45:19;;;;;;;7.78;3.33;;;26.70;55.60;;;;;;5041766;28;20020;-63
2023/08/24 07:47:44;;;;;;;3.88;2.70;;;26.80;55.50;;;;;;5040253;28;20048;-62
2023/08/24 07:50:11;;;;;;;6.18;3.10;;;26.90;55.50;;;;;;5044798;28;20379;-62
2023/08/24 07:52:40;;;;;;;5.07;2.88;;;26.90;54.80;;;;;;5043637;28;20025;-62
2023/08/24 07:55:07;;;;;;;4.22;2.90;;;27.00;54.80;;;;;;5040787;28;20116;-63
2023/08/24 07:57:37;;;;;;;7.70;2.95;;;27.00;54.90;;;;;;5043894;28;20024;-63
2023/08/24 08:00:04;;;;;;;6.90;3.00;;;27.00;54.60;;;;;;5041268;28;20021;-63
2023/08/24 08:02:32;;;;;;;4.85;2.65;;;27.10;54.70;;;;;;5037777;28;20032;-62
2023/08/24 08:04:59;;;;;;;7.45;3.13;;;27.10;54.80;;;;;;5040646;28;20028;-63
2023/08/24 08:07:25;;;;;;;6.95;2.90;;;27.10;54.40;;;;;;5041313;28;20025;-63
2023/08/24 08:09:51;;;;;;;3.75;2.65;;;27.10;54.20;;;;;;5040803;28;20052;-63
2023/08/24 08:12:17;;;;;;;3.88;2.97;;;27.10;53.90;;;;;;5040723;28;20037;-63
2023/08/24 08:14:42;;;;;;;4.93;3.00;;;27.20;53.60;;;;;;5046976;28;20041;-62
2023/08/24 08:17:08;;;;;;;5.53;2.85;;;27.30;53.40;;;;;;5043358;28;20044;-63
2023/08/24 08:19:35;;;;;;;9.55;2.60;;;27.30;53.50;;;;;;5043193;28;20040;-63
2023/08/24 08:22:01;;;;;;;5.72;2.30;;;27.50;54.10;;;;;;5043337;28;20021;-63
2023/08/24 08:24:27;;;;;;;4.63;2.63;;;27.60;54.10;;;;;;5038114;28;20053;-62
2023/08/24 08:26:53;;;;;;;3.80;2.70;;;27.80;53.90;;;;;;5045156;28;20507;-63
2023/08/24 08:29:18;;;;;;;5.53;2.70;;;28.00;53.60;;;;;;4951835;28;20044;-63
2023/08/24 08:31:44;;;;;;;9.25;3.25;;;28.10;53.40;;;;;;5051074;28;20028;-63
2023/08/24 08:34:10;;;;;;;10.23;3.63;;;28.20;52.70;;;;;;5046091;28;20082;-62
2023/08/24 08:36:35;;;;;;;5.55;2.97;;;28.40;52.60;;;;;;5043542;28;20028;-63
2023/08/24 08:39:03;;;;;;;5.85;3.63;;;28.40;52.70;;;;;;5046300;28;20071;-63
2023/08/24 08:41:33;;;;;;;4.60;3.05;;;28.50;52.40;;;;;;5047424;28;20039;-63
2023/08/24 08:44:04;;;;;;;4.55;2.78;;;28.60;52.20;;;;;;5042392;28;20025;-62
2023/08/24 08:46:31;;;;;;;8.18;3.20;;;28.70;52.20;;;;;;5053683;28;20028;-63
2023/08/24 08:48:58;;;;;;;5.45;2.60;;;28.80;51.60;;;;;;5046765;28;20059;-63
2023/08/24 08:51:24;;;;;;;5.70;2.67;;;28.90;51.70;;;;;;5048290;28;20021;-62
2023/08/24 08:53:50;;;;;;;13.98;3.33;;;29.00;51.50;;;;;;5042330;28;20041;-63
2023/08/24 08:56:16;;;;;;;4.80;2.33;;;29.10;52.00;;;;;;5050126;28;20082;-62
2023/08/24 08:58:43;;;;;;;5.20;2.22;;;29.20;51.50;;;;;;5059298;28;20083;-62
2023/08/24 09:01:09;;;;;;;10.73;2.70;;;29.40;51.40;;;;;;5056630;28;20043;-62
2023/08/24 09:03:35;;;;;;;3.67;2.70;;;29.50;50.80;;;;;;5050797;28;20052;-62
2023/08/24 09:06:01;;;;;;;4.55;2.55;;;29.70;50.60;;;;;;5051172;28;20052;-63
2023/08/24 09:08:27;;;;;;;4.78;2.53;;;29.80;50.40;;;;;;5045261;28;20033;-62
2023/08/24 09:10:54;;;;;;;7.32;3.00;;;30.00;50.10;;;;;;5048637;28;20040;-63
2023/08/24 09:13:21;;;;;;;4.38;2.60;;;30.10;49.90;;;;;;5048166;28;20085;-62
2023/08/24 09:15:46;;;;;;;8.13;2.63;;;30.20;50.30;;;;;;5055037;28;20086;-62
2023/08/24 09:18:12;;;;;;;4.65;2.53;;;30.30;50.10;;;;;;5048395;28;20037;-62
2023/08/24 09:20:38;;;;;;;4.70;2.42;;;30.40;50.00;;;;;;5045030;28;20027;-63
2023/08/24 09:23:03;;;;;;;7.95;2.72;;;30.60;50.00;;;;;;5049448;28;20032;-62
2023/08/24 09:25:29;;;;;;;4.30;3.15;;;30.70;49.80;;;;;;5052329;28;20533;-62
2023/08/24 09:28:04;;;;;;;8.63;3.47;;;30.80;48.90;;;;;;4984887;28;20059;-61
2023/08/24 09:30:35;;;;;;;6.13;3.08;;;30.90;47.80;;;;;;5045879;28;20452;-62
2023/08/24 09:33:02;;;;;;;6.80;2.88;;;31.00;48.30;;;;;;5046695;28;20025;-63
2023/08/24 09:35:28;;;;;;;3.88;2.63;;;31.00;48.80;;;;;;5047424;28;20056;-63
2023/08/24 09:37:54;;;;;;;9.13;3.05;;;31.10;48.30;;;;;;5045280;28;20063;-63
2023/08/24 09:40:24;;;;;;;9.13;3.10;;;31.20;48.10;;;;;;5043032;28;20957;-62
2023/08/24 09:42:50;;;;;;;6.68;2.92;;;31.30;47.20;;;;;;5051882;28;20120;-63
2023/08/24 09:45:16;;;;;;;7.30;2.60;;;31.40;48.00;;;;;;5044634;28;20116;-64
2023/08/24 09:47:54;;;;;;;4.30;2.65;;;31.50;48.10;;;;;;5044476;28;20059;-62
2023/08/24 09:50:19;;;;;;;6.57;2.55;;;31.50;47.20;;;;;;5048282;28;20387;-63
2023/08/24 09:52:48;;;;;;;5.35;2.72;;;31.60;48.00;;;;;;5037411;28;20042;-63
2023/08/24 09:55:22;;;;;;;3.95;2.42;;;31.70;47.50;;;;;;5049202;28;20033;-63
2023/08/24 09:57:51;;;;;;;4.95;2.45;;;31.80;47.40;;;;;;5049539;28;20658;-65
2023/08/24 10:00:22;;;;;;;3.35;2.50;;;31.90;47.50;;;;;;5045146;28;20507;-63
2023/08/24 10:02:55;;;;;;;5.45;2.60;;;32.00;47.30;;;;;;5048326;28;20040;-63
2023/08/24 10:05:23;;;;;;;3.85;2.78;;;32.10;47.10;;;;;;5044339;28;20037;-61
2023/08/24 10:07:55;;;;;;;6.20;3.22;;;32.20;47.50;;;;;;5048814;28;20116;-63
2023/08/24 10:10:24;;;;;;;5.78;2.60;;;32.30;46.80;;;;;;5042412;28;20057;-63
2023/08/24 10:12:52;;;;;;;4.57;2.47;;;32.50;46.70;;;;;;5043449;28;20033;-63
2023/08/24 10:15:19;;;;;;;7.40;2.85;;;32.60;46.80;;;;;;5045867;28;20051;-63
2023/08/24 10:17:45;;;;;;;6.22;2.40;;;32.70;46.70;;;;;;5047199;28;20017;-63
2023/08/24 10:20:11;;;;;;;11.00;3.38;;;32.80;46.80;;;;;;5046907;28;20036;-63
2023/08/24 10:22:41;;;;;;;9.52;2.88;;;32.90;46.50;;;;;;5049866;28;20033;-63
2023/08/24 10:25:09;;;;;;;6.53;2.90;;;33.00;45.90;;;;;;5041508;28;20033;-63
2023/08/24 10:27:35;;;;;;;3.92;2.58;;;33.00;45.70;;;;;;5047453;28;20112;-62
2023/08/24 10:30:01;;;;;;;8.95;2.60;;;33.10;46.00;;;;;;5047560;28;20393;-62
2023/08/24 10:32:27;;;;;;;5.35;2.72;;;33.20;45.90;;;;;;5049378;28;20024;-63
2023/08/24 10:34:53;;;;;;;6.90;3.10;;;33.20;46.00;;;;;;5053217;28;20032;-63
2023/08/24 10:37:26;;;;;;;6.13;2.90;;;33.30;46.10;;;;;;5046150;28;20024;-64
2023/08/24 10:39:52;;;;;;;4.60;2.92;;;33.40;46.10;;;;;;5042019;28;20028;-61
2023/08/24 10:42:18;;;;;;;5.32;2.70;;;33.50;45.80;;;;;;5053037;28;20028;-62
2023/08/24 10:44:48;;;;;;;6.05;2.60;;;33.60;46.20;;;;;;5051061;28;20025;-62
2023/08/24 10:47:23;;;;;;;11.70;2.85;;;33.70;46.60;;;;;;5040357;28;20031;-62
2023/08/24 10:49:55;;;;;;;5.07;2.83;;;33.70;46.60;;;;;;5041192;28;20132;-61
2023/08/24 10:52:29;;;;;;;3.65;2.38;;;33.80;46.00;;;;;;5041976;28;20036;-62
2023/08/24 10:54:55;;;;;;;5.95;2.83;;;33.90;45.50;;;;;;5048227;28;20571;-62
2023/08/24 10:57:36;;;;;;;3.75;2.70;;;34.00;45.20;;;;;;5050069;28;20029;-63
2023/08/24 11:00:12;;;;;;;6.68;2.83;;;34.10;44.80;;;;;;5048351;28;20028;-62
2023/08/24 11:02:51;;;;;;;11.18;3.13;;;34.10;43.80;;;;;;5048706;28;20033;-63
2023/08/24 11:05:22;;;;;;;7.00;2.60;;;34.20;44.60;;;;;;5040652;28;20090;-64
2023/08/24 11:07:50;;;;;;;3.45;2.47;;;34.20;44.60;;;;;;5037735;28;20415;-63
2023/08/24 11:10:16;;;;;;;8.65;2.97;;;34.20;44.20;;;;;;5043900;28;20052;-63
2023/08/24 11:13:03;;;;;;;6.32;2.85;;;34.30;44.50;;;;;;5046185;28;20143;-63
2023/08/24 11:15:33;;;;;;;6.50;2.40;;;34.40;43.70;;;;;;5040137;28;20096;-63
2023/08/24 11:18:24;;;;;;;6.78;2.45;;;34.50;44.00;;;;;;5041496;28;20029;-63
2023/08/24 11:21:03;;;;;;;8.43;3.00;;;34.60;44.00;;;;;;5048534;28;20025;-63
2023/08/24 11:23:29;;;;;;;3.60;2.13;;;34.70;44.40;;;;;;5047917;28;20550;-66
2023/08/24 11:25:57;;;;;;;6.85;2.40;;;34.70;43.40;;;;;;5048513;28;20035;-64
2023/08/24 11:28:31;;;;;;;4.68;2.67;;;34.80;43.20;;;;;;5045348;28;20017;-63
2023/08/24 11:30:57;;;;;;;;;;;34.80;42.10;;;;;;5046278;28;20047;-63
2023/08/24 11:33:30;;;;;;;9.68;2.38;;;34.90;43.90;;;;;;5045552;28;19917;-64
2023/08/24 11:35:56;;;;;;;5.50;2.90;;;35.00;43.60;;;;;;5042511;28;20550;-64
2023/08/24 11:38:22;;;;;;;3.17;2.40;;;35.00;43.00;;;;;;5045245;28;20040;-63
2023/08/24 11:40:47;;;;;;;4.70;2.50;;;35.10;42.50;;;;;;5044083;28;20029;-63
2023/08/24 11:43:25;;;;;;;3.20;2.30;;;35.10;42.40;;;;;;5045808;28;20060;-63
2023/08/24 11:45:51;;;;;;;7.78;2.55;;;35.20;42.20;;;;;;5042453;28;20024;-64
2023/08/24 11:48:16;;;;;;;5.85;2.22;;;35.30;42.10;;;;;;5046609;28;20495;-63
2023/08/24 11:50:42;;;;;;;3.05;2.35;;;35.40;42.40;;;;;;5045344;28;20392;-64
2023/08/24 11:53:08;;;;;;;5.22;2.25;;;35.50;41.80;;;;;;5047272;28;20028;-64
2023/08/24 11:55:39;;;;;;;7.18;2.88;;;35.50;41.70;;;;;;5043487;28;20040;-64
2023/08/24 11:58:04;;;;;;;4.40;2.30;;;35.60;41.20;;;;;;5038652;28;20025;-63
2023/08/24 12:00:30;;;;;;;7.47;2.45;;;35.70;41.70;;;;;;5038997;28;20033;-63
2023/08/24 12:02:57;;;;;;;5.72;2.65;;;35.80;41.50;;;;;;5040233;28;20104;-64
2023/08/24 12:05:24;;;;;;;9.07;2.72;;;35.80;41.60;;;;;;5048621;28;20087;-64
2023/08/24 12:07:52;;;;;;;4.07;2.53;;;35.90;40.90;;;;;;5041512;28;20056;-64
2023/08/24 12:10:18;;;;;;;4.57;2.53;;;35.90;40.30;;;;;;5041358;28;20056;-63
2023/08/24 12:12:43;;;;;;;3.97;2.65;;;35.90;41.00;;;;;;5049474;28;20107;-62
2023/08/24 12:15:16;;;;;;;5.65;2.55;;;36.00;41.00;;;;;;5046181;28;20039;-63
2023/08/24 12:17:43;;;;;;;7.15;2.58;;;36.00;40.90;;;;;;5046891;28;20069;-63
2023/08/24 12:20:19;;;;;;;10.95;3.00;;;36.10;41.40;;;;;;5039901;28;20040;-63
2023/08/24 12:22:53;;;;;;;8.23;2.58;;;36.10;40.70;;;;;;5038583;28;20039;-64
2023/08/24 12:25:24;;;;;;;6.03;2.65;;;36.20;40.20;;;;;;5036631;28;20017;-63
2023/08/24 12:28:07;;;;;;;6.63;2.50;;;36.20;40.20;;;;;;5037420;28;20029;-64
2023/08/24 12:30:45;;;;;;;5.30;2.53;;;36.20;40.40;;;;;;5035308;28;20033;-63
2023/08/24 12:33:27;;;;;;;7.18;2.80;;;36.40;40.80;;;;;;5048350;28;20124;-64
2023/08/24 12:35:53;;;;;;;3.13;2.17;;;36.40;40.70;;;;;;5048434;28;20041;-62
2023/08/24 12:38:19;;;;;;;7.57;2.20;;;36.50;39.90;;;;;;5044770;28;20031;-64
2023/08/24 12:40:46;;;;;;;6.30;2.80;;;36.60;40.00;;;;;;5045375;28;20503;-63
2023/08/24 12:43:11;;;;;;;3.40;2.20;;;36.70;39.20;;;;;;5040496;28;20060;-63
2023/08/24 12:45:37;;;;;;;3.13;2.20;;;36.80;39.20;;;;;;5039417;28;20110;-64